Time;durP1;ratioP1;P1;durP2;ratioP2;P2;SDS_P1;SDS_P2;PMS_P1;PMS_P2;Temp;Humidity;BMP_temperature;BMP_pressure;BME280_temperature;BME280_humidity;BME280_pressure;Samples;Min_cycle;Max_cycle;Signal;HPM_P1;HPM_P2
2021/12/08 05:01:24;;;;;;;10.90;5.10;;;2.80;99.70;;;;;;5053565;28;20181;-58
2021/12/08 05:04:26;;;;;;;13.07;5.60;;;3.00;99.70;;;;;;5053986;28;20237;-60
2021/12/08 05:07:13;;;;;;;12.83;6.43;;;2.90;99.70;;;;;;5053946;28;20554;-59
2021/12/08 05:09:40;;;;;;;12.27;5.90;;;2.80;99.70;;;;;;5054516;28;20451;-60
2021/12/08 05:12:10;;;;;;;11.80;6.00;;;2.80;99.70;;;;;;5053157;28;20450;-63
2021/12/08 05:14:41;;;;;;;13.57;6.60;;;2.80;99.70;;;;;;5052929;28;20448;-62
2021/12/08 05:17:12;;;;;;;13.43;6.40;;;2.80;99.70;;;;;;5053030;28;20537;-64
2021/12/08 05:19:43;;;;;;;14.93;7.20;;;2.80;99.70;;;;;;5053296;28;20443;-59
2021/12/08 05:22:13;;;;;;;15.13;7.27;;;2.80;99.70;;;;;;5052515;28;20448;-64
2021/12/08 05:24:46;;;;;;;16.77;7.40;;;2.70;99.70;;;;;;5052779;28;20455;-63
2021/12/08 05:27:16;;;;;;;15.40;7.33;;;2.80;99.70;;;;;;5052373;28;20439;-62
2021/12/08 05:29:47;;;;;;;19.60;7.57;;;2.90;99.70;;;;;;5053164;28;20497;-60
2021/12/08 05:32:15;;;;;;;14.37;7.13;;;2.80;99.70;;;;;;5053018;28;20454;-61
2021/12/08 05:34:42;;;;;;;16.77;7.50;;;2.90;99.70;;;;;;5052733;28;21061;-60
2021/12/08 05:37:11;;;;;;;14.37;6.97;;;2.90;99.70;;;;;;5052937;28;20443;-61
2021/12/08 05:39:39;;;;;;;15.93;8.20;;;2.90;99.70;;;;;;5052984;28;20467;-60
2021/12/08 05:42:09;;;;;;;16.33;8.30;;;2.80;99.70;;;;;;5053066;28;20452;-60
2021/12/08 05:44:38;;;;;;;15.23;7.63;;;2.80;99.70;;;;;;5044800;28;20467;-63
2021/12/08 05:47:08;;;;;;;15.93;7.80;;;2.80;99.70;;;;;;5046418;28;20488;-57
2021/12/08 05:49:37;;;;;;;18.37;8.03;;;2.90;99.70;;;;;;5043984;28;20873;-60
2021/12/08 05:52:06;;;;;;;15.93;7.90;;;2.90;99.70;;;;;;5044382;28;20539;-59
2021/12/08 05:54:36;;;;;;;15.00;7.20;;;2.80;99.70;;;;;;5052415;28;20440;-59
2021/12/08 05:57:07;;;;;;;20.57;8.33;;;2.90;99.70;;;;;;5049761;28;20490;-59
2021/12/08 05:59:35;;;;;;;20.57;7.80;;;2.90;99.70;;;;;;5044272;28;20468;-62
2021/12/08 06:02:07;;;;;;;13.67;6.80;;;3.00;99.70;;;;;;5046511;28;20460;-63
2021/12/08 06:04:35;;;;;;;14.30;6.50;;;3.00;99.70;;;;;;5047540;28;20447;-59
2021/12/08 06:07:05;;;;;;;14.77;7.20;;;3.00;99.70;;;;;;5047531;28;20557;-63
2021/12/08 06:09:35;;;;;;;14.80;6.77;;;3.10;99.70;;;;;;5039566;28;20533;-59
2021/12/08 06:12:02;;;;;;;17.27;6.40;;;3.10;99.70;;;;;;5031465;28;20448;-61
2021/12/08 06:14:32;;;;;;;17.43;7.10;;;3.10;99.70;;;;;;5031758;28;20964;-60
2021/12/08 06:17:02;;;;;;;16.00;7.73;;;3.10;99.70;;;;;;5030877;28;20476;-61
2021/12/08 06:19:29;;;;;;;18.40;8.20;;;3.10;99.70;;;;;;5031839;28;20441;-59
2021/12/08 06:21:57;;;;;;;18.23;8.13;;;3.10;99.70;;;;;;5032580;28;20932;-59
2021/12/08 06:24:24;;;;;;;14.73;6.97;;;3.10;99.70;;;;;;5032063;28;20456;-60
2021/12/08 06:26:52;;;;;;;17.77;8.47;;;3.10;99.70;;;;;;5027781;28;20495;-62
2021/12/08 06:29:20;;;;;;;20.33;9.27;;;3.10;99.70;;;;;;5031396;28;20476;-61
2021/12/08 06:31:53;;;;;;;19.17;8.57;;;3.00;99.70;;;;;;5031999;28;20523;-61
2021/12/08 06:34:21;;;;;;;20.43;9.00;;;3.00;99.70;;;;;;5050481;28;20447;-58
2021/12/08 06:36:51;;;;;;;21.23;8.70;;;3.00;99.70;;;;;;5051740;28;20467;-60
2021/12/08 06:39:24;;;;;;;19.93;8.97;;;3.00;99.70;;;;;;5051699;28;20435;-61
2021/12/08 06:41:56;;;;;;;17.60;8.57;;;3.10;99.70;;;;;;5047760;28;20497;-63
2021/12/08 06:44:27;;;;;;;20.80;9.13;;;3.00;99.70;;;;;;5050453;28;20470;-66
2021/12/08 06:46:54;;;;;;;23.63;10.00;;;3.10;99.70;;;;;;5040718;28;20849;-60
2021/12/08 06:49:22;;;;;;;21.43;9.10;;;3.10;99.70;;;;;;5050655;28;20467;-60
2021/12/08 06:51:52;;;;;;;22.13;9.67;;;3.30;99.70;;;;;;5051150;28;20806;-59
2021/12/08 06:54:24;;;;;;;20.70;9.60;;;3.30;99.70;;;;;;5051354;28;20451;-59
2021/12/08 06:57:00;;;;;;;20.03;9.57;;;3.20;99.70;;;;;;5050377;28;20597;-59
2021/12/08 06:59:33;;;;;;;21.00;9.47;;;3.20;99.70;;;;;;5051663;28;20446;-60
2021/12/08 07:02:09;;;;;;;20.23;8.90;;;3.10;99.70;;;;;;5051680;28;20444;-60
2021/12/08 07:04:54;;;;;;;18.30;8.67;;;3.40;99.70;;;;;;5051466;28;20879;-60
2021/12/08 07:07:23;;;;;;;19.00;8.90;;;3.50;99.70;;;;;;5051626;28;20462;-60
2021/12/08 07:09:54;;;;;;;21.00;9.00;;;3.50;99.70;;;;;;5051837;28;20542;-61
2021/12/08 07:12:24;;;;;;;18.13;8.73;;;3.40;99.70;;;;;;5051404;28;20452;-58
2021/12/08 07:14:55;;;;;;;19.00;9.50;;;3.30;99.70;;;;;;5051034;28;20447;-60
2021/12/08 07:17:25;;;;;;;19.67;9.43;;;3.30;99.70;;;;;;5087718;22;20497;-63
2021/12/08 07:20:03;;;;;;;19.57;9.10;;;3.40;99.70;;;;;;5074413;28;20804;-63
2021/12/08 07:22:35;;;;;;;24.43;9.40;;;3.40;99.70;;;;;;5075231;28;20517;-63
2021/12/08 07:25:05;;;;;;;20.47;9.50;;;3.30;99.70;;;;;;5074819;28;20443;-63
2021/12/08 07:27:36;;;;;;;23.90;8.80;;;3.40;99.70;;;;;;5074733;28;20512;-63
2021/12/08 07:30:08;;;;;;;21.60;8.87;;;3.40;99.70;;;;;;5075008;28;20481;-63
2021/12/08 07:32:39;;;;;;;19.00;8.93;;;3.50;99.70;;;;;;5075157;28;20438;-63
2021/12/08 07:35:10;;;;;;;16.47;8.47;;;3.60;99.70;;;;;;5074671;28;20448;-63
2021/12/08 07:37:36;;;;;;;22.10;9.67;;;3.90;99.70;;;;;;5074985;28;20512;-63
2021/12/08 07:40:14;;;;;;;20.07;9.60;;;4.00;99.70;;;;;;5075037;28;20442;-63
2021/12/08 07:42:46;;;;;;;22.77;9.17;;;4.00;99.70;;;;;;5075037;28;20449;-63
2021/12/08 07:45:18;;;;;;;28.83;9.30;;;3.80;99.70;;;;;;5074497;28;20474;-63
2021/12/08 07:47:46;;;;;;;19.50;8.90;;;3.90;99.70;;;;;;5074998;28;20549;-63
2021/12/08 07:50:17;;;;;;;24.30;10.83;;;3.70;99.70;;;;;;5074919;28;20482;-62
2021/12/08 07:52:46;;;;;;;24.80;11.37;;;3.60;99.70;;;;;;5073554;28;20443;-60
2021/12/08 07:55:18;;;;;;;28.10;11.70;;;3.60;99.70;;;;;;5068062;28;20458;-60
2021/12/08 07:57:46;;;;;;;31.07;14.17;;;3.50;99.70;;;;;;5047892;28;20467;-61
2021/12/08 08:00:19;;;;;;;25.70;11.13;;;3.40;99.70;;;;;;5050930;28;20508;-63
2021/12/08 08:02:46;;;;;;;22.47;10.63;;;3.30;99.70;;;;;;5067582;28;20451;-60
2021/12/08 08:05:16;;;;;;;23.20;10.30;;;3.40;99.70;;;;;;5074422;28;20468;-60
2021/12/08 08:07:44;;;;;;;21.90;9.70;;;3.40;99.70;;;;;;5074310;28;20469;-61
2021/12/08 08:10:14;;;;;;;19.90;9.77;;;3.40;99.70;;;;;;5074171;28;20478;-60
2021/12/08 08:12:45;;;;;;;19.40;9.30;;;3.50;99.70;;;;;;5074214;28;20453;-62
2021/12/08 08:15:16;;;;;;;21.43;10.00;;;3.50;99.70;;;;;;5073832;28;20930;-60
2021/12/08 08:17:45;;;;;;;23.73;9.93;;;3.50;99.70;;;;;;5073987;28;20478;-59
2021/12/08 08:20:16;;;;;;;21.60;9.90;;;3.60;99.70;;;;;;5074198;28;20438;-60
2021/12/08 08:22:44;;;;;;;18.80;9.33;;;3.60;99.70;;;;;;5073994;28;20450;-60
2021/12/08 08:25:13;;;;;;;18.13;9.07;;;3.60;99.70;;;;;;5073549;28;20455;-61
2021/12/08 08:27:42;;;;;;;23.87;10.90;;;3.60;99.70;;;;;;5073949;28;20470;-59
2021/12/08 08:30:14;;;;;;;21.80;10.20;;;3.60;99.70;;;;;;5073338;28;20828;-59
2021/12/08 08:32:41;;;;;;;27.07;11.73;;;3.50;99.70;;;;;;5073902;28;20460;-62
2021/12/08 08:35:13;;;;;;;19.23;9.07;;;3.40;99.70;;;;;;5073444;28;20541;-61
2021/12/08 08:37:40;;;;;;;19.03;9.13;;;3.60;99.70;;;;;;5073763;28;20470;-61
2021/12/08 08:40:14;;;;;;;22.07;9.80;;;3.70;99.70;;;;;;5073638;28;20446;-60
2021/12/08 08:42:43;;;;;;;20.70;9.70;;;3.70;99.70;;;;;;5073638;28;20457;-60
2021/12/08 08:45:14;;;;;;;20.57;9.37;;;3.70;99.70;;;;;;5073283;28;20453;-63
2021/12/08 08:47:44;;;;;;;20.70;9.50;;;3.80;99.70;;;;;;5073464;28;20961;-61
2021/12/08 08:50:16;;;;;;;27.43;10.30;;;3.70;99.70;;;;;;5073624;28;20528;-61
2021/12/08 08:52:46;;;;;;;26.67;11.50;;;3.90;99.70;;;;;;5073551;28;20447;-62
2021/12/08 08:55:19;;;;;;;21.90;10.90;;;3.70;99.70;;;;;;5073221;28;20443;-60
2021/12/08 08:57:48;;;;;;;27.83;12.40;;;3.60;99.70;;;;;;5052732;28;20459;-61
2021/12/08 09:00:25;;;;;;;23.03;11.53;;;3.60;99.70;;;;;;5072282;28;20435;-60
2021/12/08 09:02:53;;;;;;;17.97;8.53;;;3.70;99.70;;;;;;5073257;28;20449;-60
2021/12/08 09:05:24;;;;;;;17.93;9.60;;;3.90;99.70;;;;;;5072896;28;20853;-62
2021/12/08 09:07:55;;;;;;;19.43;9.60;;;4.00;99.70;;;;;;5072976;28;20508;-62
2021/12/08 09:10:25;;;;;;;31.83;10.67;;;4.00;99.70;;;;;;5073061;28;20486;-62
2021/12/08 09:12:57;;;;;;;22.73;10.47;;;3.90;99.70;;;;;;5072885;28;20443;-62
2021/12/08 09:15:29;;;;;;;28.47;12.53;;;3.90;99.70;;;;;;5072661;28;20934;-62
2021/12/08 09:17:58;;;;;;;26.83;11.60;;;3.80;99.70;;;;;;5073040;28;20454;-63
2021/12/08 09:20:30;;;;;;;32.53;11.97;;;3.80;99.70;;;;;;5072875;28;20583;-61
2021/12/08 09:23:00;;;;;;;30.43;13.07;;;3.80;99.70;;;;;;5072917;28;20446;-62
2021/12/08 09:25:31;;;;;;;63.30;21.37;;;3.70;99.70;;;;;;5071649;28;20938;-63
2021/12/08 09:28:03;;;;;;;58.10;22.43;;;3.70;99.70;;;;;;5072723;28;20946;-62
2021/12/08 09:30:34;;;;;;;29.13;13.87;;;3.70;99.70;;;;;;5072770;28;20491;-62
2021/12/08 09:33:06;;;;;;;25.40;10.47;;;3.90;99.70;;;;;;5072888;28;20541;-61
2021/12/08 09:35:38;;;;;;;20.57;9.97;;;4.00;99.70;;;;;;5072191;28;20824;-63
2021/12/08 09:38:09;;;;;;;19.30;9.70;;;3.90;99.70;;;;;;5072724;28;20443;-63
2021/12/08 09:40:42;;;;;;;22.70;9.97;;;3.90;99.70;;;;;;5071884;28;20860;-62
2021/12/08 09:43:17;;;;;;;37.03;15.27;;;3.90;99.70;;;;;;5072499;28;20818;-61
2021/12/08 09:45:47;;;;;;;34.97;14.80;;;4.00;99.70;;;;;;5072213;28;20504;-63
2021/12/08 09:48:14;;;;;;;64.60;21.77;;;3.90;99.70;;;;;;5071706;28;20451;-62
2021/12/08 09:50:41;;;;;;;52.83;19.67;;;3.80;99.70;;;;;;5072211;28;20482;-62
2021/12/08 09:53:09;;;;;;;41.83;17.63;;;3.90;99.70;;;;;;5072211;28;20443;-62
2021/12/08 09:55:37;;;;;;;32.93;12.53;;;3.90;99.70;;;;;;5074284;28;20807;-61
2021/12/08 09:58:05;;;;;;;33.20;14.07;;;3.80;99.70;;;;;;5091960;28;20504;-63
2021/12/08 10:00:36;;;;;;;36.67;14.97;;;3.90;99.70;;;;;;5092448;28;20446;-63
2021/12/08 10:03:05;;;;;;;28.73;12.77;;;4.00;99.70;;;;;;5092397;28;20454;-63
2021/12/08 10:05:34;;;;;;;45.10;18.40;;;4.00;99.70;;;;;;5085906;28;20819;-61
2021/12/08 10:08:02;;;;;;;40.50;17.70;;;3.90;99.70;;;;;;5071780;28;20479;-62
2021/12/08 10:10:29;;;;;;;33.27;13.57;;;4.00;99.70;;;;;;5071827;28;20489;-62
2021/12/08 10:12:57;;;;;;;32.43;14.20;;;4.00;99.70;;;;;;5072006;28;20453;-62
2021/12/08 10:15:24;;;;;;;34.30;17.13;;;4.00;99.70;;;;;;5071367;28;20446;-63
2021/12/08 10:17:54;;;;;;;31.23;14.60;;;4.10;99.70;;;;;;5071742;28;20471;-62
2021/12/08 10:20:24;;;;;;;38.63;16.10;;;4.10;99.70;;;;;;5071816;28;20496;-63
2021/12/08 10:23:11;;;;;;;64.67;24.27;;;4.10;99.70;;;;;;5071810;28;20450;-62
2021/12/08 10:25:40;;;;;;;62.07;22.40;;;4.10;99.70;;;;;;5069829;28;20446;-63
2021/12/08 10:28:13;;;;;;;96.87;30.10;;;4.10;99.70;;;;;;5071736;28;20444;-62
2021/12/08 10:30:47;;;;;;;50.37;18.33;;;4.20;99.70;;;;;;5071419;28;20997;-60
2021/12/08 10:34:02;;;;;;;54.33;20.40;;;4.20;99.70;;;;;;5071735;28;20442;-62
2021/12/08 10:36:44;;;;;;;71.53;24.77;;;4.20;99.70;;;;;;5009340;28;20461;-64
2021/12/08 10:39:14;;;;;;;115.80;31.43;;;4.20;99.70;;;;;;5009531;28;20449;-62
2021/12/08 10:41:57;;;;;;;122.77;31.53;;;4.20;99.70;;;;;;5050273;28;20447;-61
2021/12/08 10:44:27;;;;;;;80.10;24.70;;;4.10;99.70;;;;;;5071173;28;20434;-62
2021/12/08 10:46:57;;;;;;;58.37;21.40;;;4.10;99.70;;;;;;5071030;28;20845;-61
2021/12/08 10:54:24;;;;;;;46.27;17.53;;;4.20;99.70;;;;;;5071394;28;20518;-61
2021/12/08 10:55:01;;;;;;;29.00;14.67;;;4.10;99.70;;;;;;5060191;28;20454;-62
2021/12/08 10:57:31;;;;;;;30.10;13.10;;;4.20;99.70;;;;;;5068710;28;20974;-62
2021/12/08 11:00:05;;;;;;;24.03;11.40;;;4.30;99.70;;;;;;5071164;28;20447;-60
2021/12/08 11:02:49;;;;;;;20.17;9.70;;;4.40;99.70;;;;;;5069729;28;20824;-62
2021/12/08 11:05:38;;;;;;;22.93;10.53;;;4.30;99.70;;;;;;5068479;28;20450;-63
2021/12/08 11:08:11;;;;;;;28.90;13.07;;;4.30;99.70;;;;;;5071158;28;20496;-61
2021/12/08 11:10:43;;;;;;;27.80;13.10;;;4.30;99.70;;;;;;5071050;28;20478;-61
2021/12/08 11:13:11;;;;;;;21.07;9.13;;;4.40;99.70;;;;;;5069523;28;20964;-63
2021/12/08 11:15:39;;;;;;;20.23;8.50;;;4.30;99.70;;;;;;5070426;28;20538;-63
2021/12/08 11:18:14;;;;;;;21.00;8.80;;;4.30;99.70;;;;;;5071270;28;20443;-63
2021/12/08 11:20:49;;;;;;;18.50;9.00;;;4.30;99.70;;;;;;5069093;28;20451;-61
2021/12/08 11:23:28;;;;;;;19.30;9.40;;;4.30;99.70;;;;;;5051120;28;20505;-62
2021/12/08 11:25:56;;;;;;;17.67;8.70;;;4.40;99.70;;;;;;5049609;28;20521;-63
2021/12/08 11:28:29;;;;;;;19.00;9.93;;;4.50;99.70;;;;;;5051006;28;20444;-62
2021/12/08 11:31:05;;;;;;;16.87;8.10;;;4.50;99.70;;;;;;5050762;28;20487;-62
2021/12/08 11:33:31;;;;;;;19.67;8.87;;;4.60;99.70;;;;;;5051005;28;20479;-62
2021/12/08 11:36:13;;;;;;;17.23;8.93;;;4.90;99.70;;;;;;5050397;28;20467;-63
2021/12/08 11:38:41;;;;;;;19.53;9.27;;;4.90;99.70;;;;;;5051630;28;20443;-63
2021/12/08 11:41:35;;;;;;;15.77;9.13;;;4.80;99.70;;;;;;5054276;28;20935;-63
2021/12/08 11:44:06;;;;;;;18.80;9.63;;;4.80;99.70;;;;;;5044803;28;20513;-63
2021/12/08 11:46:39;;;;;;;18.73;9.03;;;4.80;99.70;;;;;;5072236;28;20467;-62
2021/12/08 11:49:07;;;;;;;17.50;8.70;;;4.80;99.70;;;;;;5091045;28;20520;-62
2021/12/08 11:51:56;;;;;;;17.90;8.67;;;4.80;99.70;;;;;;5090904;28;20437;-62
2021/12/08 11:54:33;;;;;;;16.00;8.13;;;4.90;99.70;;;;;;5090804;28;20442;-63
2021/12/08 11:57:22;;;;;;;18.93;9.50;;;5.20;99.70;;;;;;5090293;28;20470;-61
2021/12/08 11:59:54;;;;;;;23.53;11.63;;;5.20;99.70;;;;;;5085137;28;20448;-63
2021/12/08 12:02:22;;;;;;;99.67;26.03;;;5.10;99.70;;;;;;5090961;28;20441;-62
2021/12/08 12:04:49;;;;;;;19.70;8.10;;;5.10;99.70;;;;;;5092880;28;20441;-64
2021/12/08 12:07:18;;;;;;;16.57;8.70;;;5.10;99.70;;;;;;5072976;28;20474;-64
2021/12/08 12:09:47;;;;;;;16.63;8.50;;;5.00;99.70;;;;;;5072679;28;20479;-62
2021/12/08 12:12:14;;;;;;;18.50;9.50;;;5.10;99.70;;;;;;5074179;28;20442;-64
2021/12/08 12:14:42;;;;;;;17.50;9.77;;;5.20;99.70;;;;;;5055082;28;20847;-63
2021/12/08 12:17:10;;;;;;;17.00;8.83;;;5.00;99.70;;;;;;5053904;28;20475;-64
2021/12/08 12:19:43;;;;;;;18.93;8.80;;;4.80;99.70;;;;;;5072522;28;20890;-63
2021/12/08 12:22:24;;;;;;;19.30;9.73;;;4.70;99.70;;;;;;5073902;28;20443;-63
2021/12/08 12:25:12;;;;;;;25.00;9.57;;;4.60;99.70;;;;;;5069623;28;20829;-61
2021/12/08 12:27:46;;;;;;;20.33;9.70;;;4.50;99.70;;;;;;5072374;28;20467;-63
2021/12/08 12:30:19;;;;;;;30.50;14.80;;;4.50;99.70;;;;;;5054316;28;20483;-62
2021/12/08 12:32:48;;;;;;;38.63;17.00;;;4.50;99.70;;;;;;5053940;28;20450;-63
2021/12/08 12:35:20;;;;;;;32.33;14.13;;;4.50;99.70;;;;;;5068270;28;21701;-61
2021/12/08 12:37:49;;;;;;;24.00;11.90;;;4.50;99.70;;;;;;5053736;28;20902;-62
2021/12/08 12:40:19;;;;;;;17.77;8.50;;;4.60;99.70;;;;;;5071569;28;20961;-61
2021/12/08 12:42:53;;;;;;;14.60;7.20;;;4.50;99.70;;;;;;5073196;28;20446;-63
2021/12/08 12:45:20;;;;;;;19.10;9.37;;;4.60;99.70;;;;;;5057174;28;20892;-60
2021/12/08 12:48:06;;;;;;;22.80;9.83;;;4.70;99.70;;;;;;5093615;28;20458;-62
2021/12/08 12:50:53;;;;;;;27.90;14.00;;;4.80;99.70;;;;;;5073268;28;20487;-62
2021/12/08 12:53:38;;;;;;;25.73;12.07;;;4.80;99.70;;;;;;5071715;28;20549;-61
2021/12/08 12:56:07;;;;;;;19.70;10.47;;;4.70;99.70;;;;;;5052937;28;20555;-62
2021/12/08 12:58:53;;;;;;;17.93;9.27;;;4.70;99.70;;;;;;5055435;28;20447;-63
2021/12/08 13:01:27;;;;;;;24.90;11.63;;;4.70;99.70;;;;;;5062392;28;20465;-62
2021/12/08 13:03:56;;;;;;;24.07;11.30;;;4.60;99.70;;;;;;5058000;28;20966;-63
2021/12/08 13:06:48;;;;;;;20.90;10.20;;;4.60;99.70;;;;;;5072764;28;20458;-63
2021/12/08 13:09:43;;;;;;;19.50;8.90;;;4.60;99.70;;;;;;5046038;28;20458;-62
2021/12/08 13:12:11;;;;;;;19.40;9.80;;;4.70;99.70;;;;;;5054367;28;20526;-62
2021/12/08 13:14:39;;;;;;;21.17;10.30;;;4.70;99.70;;;;;;5052660;28;20451;-64
2021/12/08 13:17:26;;;;;;;21.00;10.23;;;4.70;99.70;;;;;;5096089;22;20485;-62
2021/12/08 13:19:56;;;;;;;20.30;10.63;;;4.70;99.70;;;;;;5026469;28;20951;-64
2021/12/08 13:22:55;;;;;;;19.57;10.60;;;4.70;99.70;;;;;;5032522;28;20961;-63
2021/12/08 13:25:51;;;;;;;17.37;10.07;;;4.70;99.70;;;;;;4998353;28;20991;-64
2021/12/08 13:28:23;;;;;;;22.53;11.80;;;4.80;99.70;;;;;;5032205;28;20469;-63
2021/12/08 13:30:53;;;;;;;23.90;11.07;;;4.70;99.70;;;;;;5032031;28;21014;-64
2021/12/08 13:33:36;;;;;;;26.90;13.50;;;4.70;99.70;;;;;;5032684;28;20449;-63
2021/12/08 13:36:31;;;;;;;28.63;13.27;;;4.70;99.70;;;;;;5032058;28;20456;-65
2021/12/08 13:39:20;;;;;;;26.13;12.20;;;4.70;99.70;;;;;;5013097;28;20871;-64
2021/12/08 13:42:01;;;;;;;24.90;12.17;;;4.70;99.70;;;;;;5016652;28;20820;-64
2021/12/08 13:44:34;;;;;;;24.60;12.53;;;4.60;99.70;;;;;;5031476;28;20451;-64
2021/12/08 13:47:02;;;;;;;19.93;9.90;;;4.60;99.70;;;;;;5031658;28;20510;-61
2021/12/08 13:49:34;;;;;;;21.53;9.77;;;4.70;99.70;;;;;;5032555;28;20448;-64
2021/12/08 13:52:19;;;;;;;18.67;9.50;;;4.80;99.70;;;;;;5031800;28;20516;-64
2021/12/08 13:54:47;;;;;;;17.73;9.10;;;4.70;99.70;;;;;;5032137;28;20510;-64
2021/12/08 13:57:31;;;;;;;19.07;9.70;;;4.80;99.70;;;;;;5031862;28;20449;-64
2021/12/08 14:00:00;;;;;;;24.40;11.50;;;4.80;99.70;;;;;;5027633;28;20588;-64
2021/12/08 14:02:28;;;;;;;25.17;12.43;;;4.70;99.70;;;;;;5025788;28;20471;-65
2021/12/08 14:05:01;;;;;;;22.77;11.90;;;4.80;99.70;;;;;;5025595;28;20450;-64
2021/12/08 14:07:28;;;;;;;30.00;14.67;;;4.80;99.70;;;;;;5021347;28;20467;-64
2021/12/08 14:09:59;;;;;;;24.60;12.80;;;4.70;99.70;;;;;;5032082;28;20487;-64
2021/12/08 14:12:41;;;;;;;22.80;11.47;;;4.70;99.70;;;;;;5031604;28;20866;-64
2021/12/08 14:15:09;;;;;;;23.63;11.33;;;4.70;99.70;;;;;;5029573;28;20448;-63
2021/12/08 14:17:36;;;;;;;23.50;10.80;;;4.80;99.70;;;;;;5031531;28;20484;-62
2021/12/08 14:20:03;;;;;;;22.60;11.90;;;4.80;99.70;;;;;;5031535;28;20448;-63
2021/12/08 14:22:38;;;;;;;21.43;11.40;;;4.70;99.70;;;;;;5022298;28;20449;-63
2021/12/08 14:25:07;;;;;;;27.17;12.57;;;4.60;99.70;;;;;;5031037;28;20448;-64
2021/12/08 14:27:35;;;;;;;29.53;12.50;;;4.60;99.70;;;;;;5022004;28;20886;-64
2021/12/08 14:30:02;;;;;;;25.80;12.80;;;4.60;99.70;;;;;;5031822;28;20453;-63
2021/12/08 14:32:29;;;;;;;30.03;13.93;;;5.00;99.70;;;;;;5030567;28;20456;-62
2021/12/08 14:34:56;;;;;;;30.80;13.60;;;4.90;99.70;;;;;;5027284;28;20460;-61
2021/12/08 14:37:22;;;;;;;23.93;12.40;;;4.70;99.70;;;;;;5028787;28;20476;-64
2021/12/08 14:39:53;;;;;;;29.70;14.40;;;4.80;99.70;;;;;;5028959;28;21041;-64
2021/12/08 14:42:27;;;;;;;29.80;13.17;;;4.70;99.70;;;;;;5019466;28;20445;-64
2021/12/08 14:45:03;;;;;;;25.10;12.07;;;4.60;99.70;;;;;;5030767;28;20510;-64
2021/12/08 14:47:33;;;;;;;25.17;13.23;;;4.60;99.70;;;;;;5029694;28;21017;-64
2021/12/08 14:50:03;;;;;;;22.70;12.07;;;4.60;99.70;;;;;;5025303;28;20539;-64
2021/12/08 14:52:31;;;;;;;22.67;12.67;;;4.90;99.70;;;;;;5029528;28;20456;-64
2021/12/08 14:54:59;;;;;;;24.70;11.80;;;4.80;99.70;;;;;;5024777;28;20460;-62
2021/12/08 14:57:27;;;;;;;23.00;12.60;;;4.70;99.70;;;;;;5015972;28;20484;-64
2021/12/08 14:59:57;;;;;;;26.03;12.20;;;4.80;99.70;;;;;;5026269;28;20494;-64
2021/12/08 15:02:30;;;;;;;31.50;15.33;;;4.70;99.70;;;;;;5019291;28;20445;-64
2021/12/08 15:04:57;;;;;;;30.23;14.50;;;4.60;99.70;;;;;;5014424;28;20471;-64
2021/12/08 15:07:26;;;;;;;49.33;22.60;;;4.50;99.70;;;;;;5012396;28;20491;-64
2021/12/08 15:10:05;;;;;;;28.97;13.70;;;4.60;99.70;;;;;;5019744;28;20874;-64
2021/12/08 15:12:33;;;;;;;29.93;13.67;;;4.60;99.70;;;;;;5024933;28;20476;-64
2021/12/08 15:15:12;;;;;;;27.37;12.87;;;5.10;99.70;;;;;;5026169;28;20548;-64
2021/12/08 15:17:38;;;;;;;23.20;12.83;;;4.90;99.70;;;;;;5030615;28;20538;-65
2021/12/08 15:20:07;;;;;;;33.77;14.20;;;4.80;99.70;;;;;;5016975;28;20704;-65
2021/12/08 15:22:41;;;;;;;36.17;16.90;;;4.70;99.70;;;;;;5024041;28;20449;-65
2021/12/08 15:25:10;;;;;;;33.30;15.30;;;4.60;99.70;;;;;;5018213;28;20453;-64
2021/12/08 15:27:38;;;;;;;32.30;14.00;;;4.60;99.70;;;;;;5025948;28;20914;-65
2021/12/08 15:30:09;;;;;;;31.13;13.60;;;4.60;99.70;;;;;;5030836;28;20832;-63
2021/12/08 15:32:35;;;;;;;27.70;13.20;;;4.60;99.70;;;;;;5030067;28;20500;-64
2021/12/08 15:35:05;;;;;;;34.00;15.63;;;4.50;99.70;;;;;;5023396;28;20444;-65
2021/12/08 15:37:33;;;;;;;39.27;18.03;;;4.50;99.70;;;;;;5015750;28;20461;-64
2021/12/08 15:40:00;;;;;;;36.07;17.73;;;4.50;99.70;;;;;;5022352;28;20453;-64
2021/12/08 15:42:33;;;;;;;41.47;18.93;;;4.50;99.70;;;;;;5034184;28;20448;-65
2021/12/08 15:45:01;;;;;;;49.30;21.53;;;4.50;99.70;;;;;;5034084;28;20458;-63
2021/12/08 15:47:29;;;;;;;38.83;18.40;;;4.40;99.70;;;;;;5033158;28;20538;-64
2021/12/08 15:49:56;;;;;;;31.60;17.20;;;4.40;99.70;;;;;;5032943;28;20448;-64
2021/12/08 15:52:24;;;;;;;72.90;26.97;;;4.40;99.70;;;;;;5018588;28;20484;-64
2021/12/08 15:55:02;;;;;;;75.03;27.90;;;4.40;99.70;;;;;;5033584;28;20875;-64
2021/12/08 15:57:29;;;;;;;65.43;25.57;;;4.30;99.70;;;;;;5033851;28;20491;-64
2021/12/08 15:59:55;;;;;;;48.87;20.43;;;4.30;99.70;;;;;;5033798;28;20502;-64
2021/12/08 16:02:27;;;;;;;43.60;17.80;;;4.40;99.70;;;;;;5033214;28;20506;-64
2021/12/08 16:04:58;;;;;;;38.07;17.87;;;4.40;99.70;;;;;;5032627;28;20468;-64
2021/12/08 16:07:27;;;;;;;44.73;21.23;;;4.30;99.70;;;;;;5023079;28;20492;-64
2021/12/08 16:09:54;;;;;;;44.97;19.30;;;4.30;99.70;;;;;;5024513;28;20534;-65
2021/12/08 16:12:22;;;;;;;46.57;19.90;;;4.30;99.70;;;;;;5023267;28;20508;-64
2021/12/08 16:14:55;;;;;;;54.00;21.93;;;4.20;99.70;;;;;;5019818;28;20464;-64
2021/12/08 16:17:27;;;;;;;63.20;24.43;;;4.20;99.70;;;;;;5023293;28;20475;-64
2021/12/08 16:20:03;;;;;;;39.80;16.80;;;4.20;99.70;;;;;;5026684;28;20463;-63
2021/12/08 16:22:30;;;;;;;28.27;13.67;;;4.40;99.70;;;;;;5026912;28;20480;-64
2021/12/08 16:24:57;;;;;;;25.73;12.73;;;4.40;99.70;;;;;;5022813;28;20474;-64
2021/12/08 16:27:28;;;;;;;27.17;12.93;;;4.40;99.70;;;;;;5024123;28;20473;-64
2021/12/08 16:29:55;;;;;;;29.87;13.07;;;4.80;99.70;;;;;;5023607;28;20551;-62
2021/12/08 16:32:23;;;;;;;28.27;13.90;;;4.60;99.70;;;;;;5022696;28;20895;-64
2021/12/08 16:34:53;;;;;;;24.67;13.23;;;4.50;99.70;;;;;;5025542;28;20456;-64
2021/12/08 16:37:21;;;;;;;27.07;13.63;;;4.30;99.70;;;;;;5023266;28;20451;-63
2021/12/08 16:39:58;;;;;;;31.53;13.87;;;4.30;99.70;;;;;;5021585;28;20453;-64
2021/12/08 16:45:13;;;;;;;33.60;15.97;;;4.30;99.70;;;;;;5021456;28;20467;-64
2021/12/08 16:47:39;;;;;;;43.90;18.57;;;4.30;99.70;;;;;;5026197;28;20466;-64
2021/12/08 16:50:10;;;;;;;39.33;18.33;;;4.20;99.70;;;;;;5031353;28;21283;-64
2021/12/08 16:52:38;;;;;;;35.07;16.87;;;4.20;99.70;;;;;;5017492;28;21030;-63
2021/12/08 16:55:05;;;;;;;39.20;17.50;;;4.20;99.70;;;;;;5018154;28;20452;-65
2021/12/08 16:57:33;;;;;;;33.30;16.50;;;4.20;99.70;;;;;;5033080;28;20889;-64
2021/12/08 17:00:01;;;;;;;33.27;16.47;;;4.20;99.70;;;;;;5032562;28;20449;-64
2021/12/08 17:02:27;;;;;;;37.87;19.03;;;4.20;99.70;;;;;;5031530;28;20837;-64
2021/12/08 17:04:54;;;;;;;39.03;18.37;;;4.10;99.70;;;;;;5030820;28;20449;-64
2021/12/08 17:07:21;;;;;;;36.73;16.40;;;4.20;99.70;;;;;;5030405;28;20465;-64
2021/12/08 17:09:50;;;;;;;39.60;18.17;;;4.30;99.70;;;;;;5031648;28;20452;-64
2021/12/08 17:12:16;;;;;;;31.27;17.43;;;4.30;99.70;;;;;;5027572;28;20482;-64
2021/12/08 17:14:43;;;;;;;36.27;17.67;;;4.20;99.70;;;;;;5024344;28;20467;-64
2021/12/08 17:17:10;;;;;;;38.73;18.50;;;4.30;99.70;;;;;;5016573;28;20528;-64
2021/12/08 17:19:38;;;;;;;32.07;16.50;;;4.30;99.70;;;;;;5029544;28;20491;-63
2021/12/08 17:22:06;;;;;;;32.30;16.23;;;4.30;99.70;;;;;;5024380;28;20481;-64
2021/12/08 17:24:35;;;;;;;31.33;15.50;;;4.30;99.70;;;;;;5026150;28;20887;-62
2021/12/08 17:27:08;;;;;;;32.73;16.07;;;4.50;99.70;;;;;;5024514;28;20556;-65
2021/12/08 17:29:35;;;;;;;31.77;15.80;;;4.50;99.70;;;;;;5027854;28;20442;-64
2021/12/08 17:32:02;;;;;;;35.03;16.20;;;4.40;99.70;;;;;;5024356;28;20502;-64
2021/12/08 17:34:28;;;;;;;34.13;15.30;;;4.30;99.70;;;;;;5023834;28;20447;-64
2021/12/08 17:36:56;;;;;;;31.10;14.93;;;4.30;99.70;;;;;;5020760;28;20862;-64
2021/12/08 17:39:23;;;;;;;30.10;14.43;;;4.30;99.70;;;;;;5016454;28;20512;-64
2021/12/08 17:41:50;;;;;;;30.93;14.73;;;4.30;99.70;;;;;;5016351;28;20468;-64
2021/12/08 17:44:20;;;;;;;29.73;14.20;;;4.20;99.70;;;;;;5024444;28;20455;-64
2021/12/08 17:46:49;;;;;;;34.50;14.90;;;4.20;99.70;;;;;;5031251;28;20528;-64
2021/12/08 17:49:17;;;;;;;30.20;13.60;;;4.40;99.70;;;;;;5031590;28;20468;-63
2021/12/08 17:51:44;;;;;;;25.37;13.20;;;4.30;99.70;;;;;;5031985;28;20492;-64
2021/12/08 17:54:11;;;;;;;33.53;15.70;;;4.50;99.70;;;;;;5022276;28;20450;-65
2021/12/08 17:56:40;;;;;;;32.23;13.60;;;4.50;99.70;;;;;;5016135;28;20448;-64
2021/12/08 17:59:09;;;;;;;25.20;12.23;;;4.50;99.70;;;;;;5029246;28;20907;-64
2021/12/08 18:01:39;;;;;;;31.00;13.20;;;4.50;99.70;;;;;;5028432;28;20468;-64
2021/12/08 18:04:09;;;;;;;27.63;13.20;;;4.60;99.70;;;;;;5031479;28;20869;-63
2021/12/08 18:06:39;;;;;;;31.93;13.80;;;4.60;99.70;;;;;;5028211;28;20849;-64
2021/12/08 18:09:10;;;;;;;28.37;13.27;;;4.50;99.70;;;;;;5030678;28;21006;-64